Time;durP1;ratioP1;P1;durP2;ratioP2;P2;SDS_P1;SDS_P2;PMS_P1;PMS_P2;Temp;Humidity;BMP_temperature;BMP_pressure;BME280_temperature;BME280_humidity;BME280_pressure;Samples;Min_cycle;Max_cycle;Signal;HPM_P1;HPM_P2
2022/09/09 00:01:09;;;;;;;9.10;4.88;;;17.60;99.90;;;;;;5045707;28;20234;-65
2022/09/09 00:03:47;;;;;;;10.32;5.15;;;17.60;99.90;;;;;;5053797;28;20171;-64
2022/09/09 00:06:37;;;;;;;10.35;5.10;;;17.60;99.90;;;;;;5055239;28;20237;-64
2022/09/09 00:09:19;;;;;;;7.70;4.63;;;17.50;99.90;;;;;;5041371;28;20200;-64
2022/09/09 00:12:15;;;;;;;11.10;4.72;;;17.50;99.90;;;;;;5066592;28;20661;-65
2022/09/09 00:15:19;;;;;;;9.20;4.68;;;17.40;99.90;;;;;;5035358;28;20156;-73
2022/09/09 00:18:20;;;;;;;7.18;4.40;;;17.40;99.90;;;;;;5037904;28;20639;-65
2022/09/09 00:21:07;;;;;;;9.43;4.57;;;17.40;99.90;;;;;;5041085;28;20218;-65
2022/09/09 00:23:43;;;;;;;8.48;4.03;;;17.30;99.90;;;;;;5045246;28;20627;-64
2022/09/09 00:26:38;;;;;;;8.80;4.78;;;17.30;99.90;;;;;;5053284;28;20705;-64
2022/09/09 00:29:32;;;;;;;10.50;4.68;;;17.30;99.90;;;;;;5047125;28;20197;-73
2022/09/09 00:32:11;;;;;;;10.40;4.75;;;17.30;99.90;;;;;;5051281;28;20179;-65
2022/09/09 00:34:48;;;;;;;9.75;5.00;;;17.20;99.90;;;;;;5054808;28;20182;-65
2022/09/09 00:37:15;;;;;;;10.55;4.90;;;17.20;99.90;;;;;;5053691;28;20631;-65
2022/09/09 00:39:44;;;;;;;11.27;5.28;;;17.20;99.90;;;;;;5064231;28;20370;-65
2022/09/09 00:42:41;;;;;;;10.65;6.07;;;17.10;99.90;;;;;;5065246;28;20542;-65
2022/09/09 00:45:34;;;;;;;12.90;6.38;;;17.10;99.90;;;;;;5049973;28;21128;-64
2022/09/09 00:48:09;;;;;;;13.65;6.75;;;17.10;99.90;;;;;;5040135;28;20175;-65
2022/09/09 00:50:48;;;;;;;15.38;7.38;;;17.00;99.90;;;;;;5037538;28;20190;-65
2022/09/09 00:53:27;;;;;;;13.50;7.28;;;17.00;99.90;;;;;;5052300;28;20285;-65
2022/09/09 00:56:21;;;;;;;17.40;7.72;;;17.00;99.90;;;;;;5055549;28;20274;-64
2022/09/09 00:59:06;;;;;;;14.02;7.72;;;16.90;99.90;;;;;;5049809;28;20176;-64
2022/09/09 01:01:32;;;;;;;14.00;7.45;;;16.90;99.90;;;;;;5048381;28;20223;-64
2022/09/09 01:03:59;;;;;;;16.00;9.15;;;16.90;99.90;;;;;;5051961;28;20195;-71
2022/09/09 01:06:33;;;;;;;15.75;8.23;;;16.90;99.90;;;;;;5037869;28;20187;-65
2022/09/09 01:09:11;;;;;;;14.70;8.88;;;16.90;99.90;;;;;;5034787;28;20632;-64
2022/09/09 01:12:10;;;;;;;13.05;8.65;;;16.80;99.90;;;;;;5059081;28;20687;-64
2022/09/09 01:14:39;;;;;;;14.45;8.90;;;16.80;99.90;;;;;;5049336;28;20183;-65
2022/09/09 01:17:30;;;;;;;13.38;8.88;;;16.80;99.90;;;;;;5058881;28;20180;-73
2022/09/09 01:20:13;;;;;;;15.68;9.13;;;16.80;99.90;;;;;;5052044;28;20351;-65
2022/09/09 01:23:03;;;;;;;14.18;8.93;;;16.80;99.90;;;;;;5050029;28;20179;-66
2022/09/09 01:25:44;;;;;;;16.50;10.15;;;16.70;99.90;;;;;;5053049;28;20692;-65
2022/09/09 01:28:22;;;;;;;17.63;10.52;;;16.70;99.90;;;;;;5057252;28;20180;-66
2022/09/09 01:30:49;;;;;;;20.02;10.93;;;16.70;99.90;;;;;;5051153;28;20199;-65
2022/09/09 01:33:19;;;;;;;17.05;11.05;;;16.70;99.90;;;;;;5057171;28;20222;-65
2022/09/09 01:35:51;;;;;;;16.48;10.77;;;16.70;99.90;;;;;;5032162;28;20179;-72
2022/09/09 01:38:18;;;;;;;17.00;11.70;;;16.70;99.90;;;;;;5058912;28;20273;-66
2022/09/09 01:40:46;;;;;;;21.00;12.68;;;16.70;99.90;;;;;;5050965;28;20215;-66
2022/09/09 01:43:12;;;;;;;22.45;12.27;;;16.60;99.90;;;;;;5065427;28;20537;-66
2022/09/09 01:45:40;;;;;;;20.23;12.38;;;16.60;99.90;;;;;;5056316;28;20219;-66
2022/09/09 01:48:06;;;;;;;22.05;13.23;;;16.60;99.90;;;;;;5038241;28;20180;-67
2022/09/09 01:50:58;;;;;;;26.48;13.18;;;16.70;99.90;;;;;;5041695;28;20203;-66
2022/09/09 01:53:24;;;;;;;22.73;13.88;;;16.60;99.90;;;;;;5042201;28;20205;-66
2022/09/09 01:55:53;;;;;;;20.92;12.90;;;16.60;99.90;;;;;;5049258;28;20244;-65
2022/09/09 01:59:03;;;;;;;18.00;12.95;;;16.60;99.90;;;;;;5040087;28;20318;-65
2022/09/09 02:01:46;;;;;;;21.77;14.05;;;16.60;99.90;;;;;;5047435;28;20238;-64
2022/09/09 02:04:19;;;;;;;20.80;13.75;;;16.60;99.90;;;;;;5068775;28;20522;-64
2022/09/09 02:06:48;;;;;;;20.30;13.85;;;16.50;99.90;;;;;;5049640;28;20229;-64
2022/09/09 02:09:26;;;;;;;23.17;14.43;;;16.50;99.90;;;;;;5051815;28;20270;-69
2022/09/09 02:12:13;;;;;;;24.50;14.43;;;16.50;99.90;;;;;;5046899;28;20214;-65
2022/09/09 02:14:57;;;;;;;26.08;14.85;;;16.50;99.90;;;;;;5051547;28;20651;-65
2022/09/09 02:17:30;;;;;;;25.02;14.85;;;16.50;99.90;;;;;;5045366;28;20179;-70
2022/09/09 02:20:14;;;;;;;27.60;15.73;;;16.50;99.90;;;;;;5053875;28;20279;-65
2022/09/09 02:22:50;;;;;;;24.92;14.77;;;16.50;99.90;;;;;;5051987;28;20626;-65
2022/09/09 02:25:21;;;;;;;24.48;15.02;;;16.50;99.90;;;;;;5044257;28;20179;-65
2022/09/09 02:27:50;;;;;;;29.42;16.35;;;16.50;99.90;;;;;;5057106;28;20184;-65
2022/09/09 02:30:18;;;;;;;24.25;16.10;;;16.50;99.90;;;;;;5037580;28;20265;-69
2022/09/09 02:32:52;;;;;;;24.58;15.07;;;16.50;99.90;;;;;;5068853;28;20179;-65
2022/09/09 02:35:24;;;;;;;27.73;15.93;;;16.50;99.90;;;;;;5067834;28;20605;-65
2022/09/09 02:37:51;;;;;;;21.80;16.27;;;16.50;99.90;;;;;;5052105;28;20224;-65
2022/09/09 02:40:17;;;;;;;26.35;16.60;;;16.50;99.90;;;;;;5054536;28;20211;-65
2022/09/09 02:42:49;;;;;;;25.63;16.75;;;16.50;99.90;;;;;;5044025;28;20195;-65
2022/09/09 02:45:24;;;;;;;25.70;17.05;;;16.50;99.90;;;;;;5034153;28;20188;-65
2022/09/09 02:48:03;;;;;;;27.65;17.70;;;16.50;99.90;;;;;;5052529;28;20226;-65
2022/09/09 02:50:44;;;;;;;23.88;17.73;;;16.50;99.90;;;;;;5052245;28;20186;-65
2022/09/09 02:53:17;;;;;;;24.05;17.52;;;16.40;99.90;;;;;;5053241;28;20270;-64
2022/09/09 02:56:03;;;;;;;28.58;17.58;;;16.40;99.90;;;;;;5065580;28;20211;-67
2022/09/09 02:58:33;;;;;;;25.00;17.05;;;16.40;99.90;;;;;;5059171;28;20190;-65
2022/09/09 03:01:03;;;;;;;25.17;16.95;;;16.40;99.90;;;;;;5051198;28;20234;-66
2022/09/09 03:03:30;;;;;;;25.95;16.88;;;16.40;99.90;;;;;;5052706;28;20229;-64
2022/09/09 03:05:56;;;;;;;24.05;16.45;;;16.40;99.90;;;;;;5038626;28;20184;-65
2022/09/09 03:08:23;;;;;;;27.95;16.08;;;16.40;99.90;;;;;;5038048;28;20207;-65
2022/09/09 03:10:49;;;;;;;23.83;15.43;;;16.40;99.90;;;;;;5055004;28;20603;-65
2022/09/09 03:13:15;;;;;;;22.67;15.13;;;16.30;99.90;;;;;;5044803;28;20286;-65
2022/09/09 03:15:42;;;;;;;21.48;15.07;;;16.30;99.90;;;;;;5035282;28;20191;-65
2022/09/09 03:18:13;;;;;;;22.45;14.63;;;16.30;99.90;;;;;;5039800;28;20189;-73
2022/09/09 03:20:39;;;;;;;20.65;13.52;;;16.40;99.90;;;;;;5052987;28;20293;-71
2022/09/09 03:23:04;;;;;;;20.77;13.40;;;16.30;99.90;;;;;;5028846;28;20332;-65
2022/09/09 03:25:30;;;;;;;17.95;13.13;;;16.30;99.90;;;;;;5067750;28;20194;-65
2022/09/09 03:27:56;;;;;;;22.05;12.88;;;16.30;99.90;;;;;;5048630;28;20592;-65
2022/09/09 03:30:27;;;;;;;19.60;13.07;;;16.30;99.90;;;;;;5033921;28;20249;-65
2022/09/09 03:32:55;;;;;;;21.77;11.90;;;16.40;99.90;;;;;;5055239;28;20191;-65
2022/09/09 03:35:22;;;;;;;21.30;11.98;;;16.40;99.90;;;;;;5049678;28;20197;-65
2022/09/09 03:37:48;;;;;;;16.02;11.98;;;16.40;99.90;;;;;;5054236;28;20187;-65
2022/09/09 03:40:15;;;;;;;18.00;12.50;;;16.30;99.90;;;;;;5043861;28;20215;-65
2022/09/09 03:42:44;;;;;;;18.05;12.60;;;16.30;99.90;;;;;;5051134;28;20179;-65
2022/09/09 03:45:10;;;;;;;17.60;11.70;;;16.30;99.90;;;;;;5051594;28;20239;-65
2022/09/09 03:47:38;;;;;;;18.60;12.50;;;16.20;99.90;;;;;;5043445;28;20183;-65
2022/09/09 03:50:09;;;;;;;16.30;12.18;;;16.20;99.90;;;;;;5043342;28;20325;-67
2022/09/09 03:52:40;;;;;;;20.08;12.00;;;16.20;99.90;;;;;;5059772;28;20175;-66
2022/09/09 03:55:10;;;;;;;18.08;11.73;;;16.10;99.90;;;;;;5063634;28;20539;-65
2022/09/09 03:57:37;;;;;;;19.85;12.05;;;16.10;99.90;;;;;;5040508;28;20184;-65
2022/09/09 04:00:07;;;;;;;19.92;11.60;;;16.00;99.90;;;;;;5052160;28;20727;-66
2022/09/09 04:02:43;;;;;;;20.23;12.82;;;16.00;99.90;;;;;;5046307;28;20707;-65
2022/09/09 04:05:10;;;;;;;20.77;12.82;;;16.00;99.90;;;;;;5064666;28;20656;-65
2022/09/09 04:07:39;;;;;;;19.10;13.07;;;16.00;99.90;;;;;;5053834;28;20218;-65
2022/09/09 04:10:07;;;;;;;16.77;12.18;;;15.90;99.90;;;;;;5054114;28;20195;-67
2022/09/09 04:12:34;;;;;;;20.48;11.93;;;15.90;99.90;;;;;;5054903;28;20594;-65
2022/09/09 04:15:01;;;;;;;19.52;12.80;;;15.90;99.90;;;;;;5045781;28;20314;-65
2022/09/09 04:17:27;;;;;;;16.33;11.85;;;15.90;99.90;;;;;;5054020;28;20199;-63
2022/09/09 04:19:53;;;;;;;24.50;12.57;;;15.90;99.90;;;;;;5051889;28;20207;-64
2022/09/09 04:22:20;;;;;;;19.95;12.82;;;15.80;99.90;;;;;;5051435;28;20176;-64
2022/09/09 04:24:46;;;;;;;18.45;12.73;;;15.80;99.90;;;;;;5063954;28;20240;-65
2022/09/09 04:27:12;;;;;;;23.15;12.52;;;15.80;99.90;;;;;;5067670;28;20180;-64
2022/09/09 04:29:38;;;;;;;19.25;12.88;;;15.80;99.90;;;;;;5051970;28;20194;-65
2022/09/09 04:32:05;;;;;;;22.73;13.25;;;15.70;99.90;;;;;;5044283;28;20543;-64
2022/09/09 04:34:32;;;;;;;20.65;13.13;;;15.80;99.90;;;;;;5056976;28;20233;-64
2022/09/09 04:37:00;;;;;;;17.40;12.25;;;15.70;99.90;;;;;;5043313;28;20183;-63
2022/09/09 04:39:26;;;;;;;17.85;12.60;;;15.70;99.90;;;;;;5047222;28;20225;-64
2022/09/09 04:41:52;;;;;;;18.42;12.18;;;15.60;99.90;;;;;;5046495;28;20643;-64
2022/09/09 04:44:20;;;;;;;18.08;12.70;;;15.60;99.90;;;;;;5051563;28;20747;-64
2022/09/09 04:46:47;;;;;;;18.33;12.68;;;15.60;99.90;;;;;;5051016;28;20267;-63
2022/09/09 04:49:13;;;;;;;19.90;11.68;;;15.60;99.90;;;;;;5066277;28;20187;-64
2022/09/09 04:51:38;;;;;;;17.42;12.48;;;15.60;99.90;;;;;;5057165;28;20693;-64
2022/09/09 04:54:05;;;;;;;19.23;12.05;;;15.50;99.90;;;;;;5043101;28;20180;-64
2022/09/09 04:56:32;;;;;;;18.83;11.25;;;15.50;99.90;;;;;;5067580;28;20533;-64
2022/09/09 04:59:00;;;;;;;15.00;10.77;;;15.50;99.90;;;;;;5068448;28;20187;-64
2022/09/09 05:01:35;;;;;;;22.80;11.20;;;15.50;99.90;;;;;;5038868;28;20231;-65
2022/09/09 05:04:04;;;;;;;15.60;11.02;;;15.50;99.90;;;;;;5049480;28;20191;-64
2022/09/09 05:06:32;;;;;;;18.70;11.07;;;15.50;99.90;;;;;;5045054;28;20263;-64
2022/09/09 05:09:00;;;;;;;17.45;10.23;;;15.50;99.90;;;;;;5033094;28;20184;-64
2022/09/09 05:11:32;;;;;;;18.15;9.93;;;15.50;99.90;;;;;;5035764;28;20195;-68
2022/09/09 05:14:04;;;;;;;16.33;9.43;;;15.50;99.90;;;;;;5065816;28;20175;-64
2022/09/09 05:16:31;;;;;;;15.93;9.23;;;15.50;99.90;;;;;;5051630;28;20187;-64
2022/09/09 05:18:58;;;;;;;16.90;9.20;;;15.50;99.90;;;;;;5053285;28;20209;-64
2022/09/09 05:21:26;;;;;;;14.98;9.23;;;15.50;99.90;;;;;;5044635;28;20663;-64
2022/09/09 05:23:52;;;;;;;15.73;8.82;;;15.50;99.90;;;;;;5042067;28;20194;-64
2022/09/09 05:26:21;;;;;;;15.88;8.90;;;15.50;99.90;;;;;;5052424;28;20209;-64
2022/09/09 05:28:48;;;;;;;16.35;8.70;;;15.50;99.90;;;;;;5036898;28;20175;-64
2022/09/09 05:31:16;;;;;;;15.85;8.77;;;15.40;99.90;;;;;;5051400;28;20723;-69
2022/09/09 05:33:45;;;;;;;14.05;7.90;;;15.40;99.90;;;;;;5038561;28;20183;-65
2022/09/09 05:36:14;;;;;;;18.25;7.70;;;15.40;99.90;;;;;;5041016;28;20187;-65
2022/09/09 05:38:42;;;;;;;15.88;7.57;;;15.40;99.90;;;;;;5053567;28;20181;-64
2022/09/09 05:41:11;;;;;;;14.13;7.93;;;15.40;99.90;;;;;;5051618;28;20742;-64
2022/09/09 05:43:37;;;;;;;13.60;6.88;;;15.40;99.90;;;;;;5039697;28;20175;-70
2022/09/09 05:46:06;;;;;;;18.17;7.32;;;15.40;99.90;;;;;;5050266;28;20678;-64
2022/09/09 05:48:37;;;;;;;13.90;7.40;;;15.50;99.90;;;;;;5050960;28;20220;-64
2022/09/09 05:51:04;;;;;;;12.90;6.60;;;15.50;99.90;;;;;;5064952;28;20191;-65
2022/09/09 05:53:37;;;;;;;13.52;6.55;;;15.50;99.90;;;;;;5049029;28;20184;-65
2022/09/09 05:56:10;;;;;;;14.43;6.97;;;15.50;99.90;;;;;;5044649;28;20282;-64
2022/09/09 05:58:37;;;;;;;13.48;5.93;;;15.50;99.90;;;;;;5051923;28;20187;-64
2022/09/09 06:01:19;;;;;;;14.85;6.03;;;15.50;99.90;;;;;;5051473;28;20314;-65
2022/09/09 06:03:47;;;;;;;14.18;6.38;;;15.50;99.90;;;;;;5050719;28;20649;-65
2022/09/09 06:06:22;;;;;;;11.48;6.05;;;15.60;99.90;;;;;;5041614;28;20183;-72
2022/09/09 06:08:51;;;;;;;14.13;5.78;;;15.60;99.90;;;;;;5033845;28;20579;-65
2022/09/09 06:11:18;;;;;;;19.50;6.40;;;15.70;99.90;;;;;;5054418;28;20694;-65
2022/09/09 06:13:44;;;;;;;14.32;5.53;;;15.70;99.90;;;;;;5049280;28;20183;-65
2022/09/09 06:16:12;;;;;;;11.35;5.47;;;15.80;99.90;;;;;;5053762;28;20176;-64
2022/09/09 06:18:39;;;;;;;16.92;5.03;;;15.80;99.90;;;;;;5051187;28;20187;-64
2022/09/09 06:21:11;;;;;;;14.73;5.45;;;15.90;99.90;;;;;;5050669;28;20246;-65
2022/09/09 06:23:39;;;;;;;13.35;6.15;;;15.90;99.90;;;;;;5052737;28;20287;-64
2022/09/09 06:26:09;;;;;;;11.07;5.15;;;15.90;99.90;;;;;;5035247;28;20179;-65
2022/09/09 06:28:36;;;;;;;17.75;5.70;;;16.00;99.90;;;;;;5045342;28;20179;-65
2022/09/09 06:31:06;;;;;;;9.15;4.90;;;16.00;99.90;;;;;;5064661;28;20245;-65
2022/09/09 06:33:39;;;;;;;14.13;5.50;;;16.10;99.90;;;;;;5069199;28;20183;-64
2022/09/09 06:36:07;;;;;;;19.13;5.70;;;16.10;99.90;;;;;;5036357;28;20183;-66
2022/09/09 06:38:33;;;;;;;16.08;5.53;;;16.20;99.90;;;;;;5037316;28;20187;-65
2022/09/09 06:41:00;;;;;;;18.30;5.78;;;16.20;99.90;;;;;;5065040;28;20238;-64
2022/09/09 06:43:27;;;;;;;13.30;4.60;;;16.30;99.90;;;;;;5051681;28;20194;-64
2022/09/09 06:45:54;;;;;;;12.77;5.10;;;16.30;99.90;;;;;;5050085;28;20182;-68
2022/09/09 06:48:20;;;;;;;14.85;5.18;;;16.30;99.90;;;;;;5020144;28;20249;-68
2022/09/09 06:50:46;;;;;;;13.55;5.00;;;16.30;99.90;;;;;;5065249;28;20187;-67
2022/09/09 06:53:16;;;;;;;14.43;5.10;;;16.40;99.90;;;;;;5051550;28;20203;-67
2022/09/09 06:55:44;;;;;;;20.48;5.63;;;16.30;99.90;;;;;;5052000;28;20183;-67
2022/09/09 06:58:12;;;;;;;12.57;5.05;;;16.40;99.90;;;;;;5043742;28;20196;-68
2022/09/09 07:00:38;;;;;;;12.75;5.07;;;16.40;99.90;;;;;;5045909;28;20246;-67
2022/09/09 07:03:05;;;;;;;12.60;5.07;;;16.40;99.90;;;;;;5052469;28;20207;-67
2022/09/09 07:05:32;;;;;;;12.93;5.50;;;16.40;99.90;;;;;;5052744;28;20204;-67
2022/09/09 07:07:58;;;;;;;14.55;5.30;;;16.50;99.90;;;;;;5046280;28;20191;-71
2022/09/09 07:10:24;;;;;;;14.02;5.20;;;16.50;99.90;;;;;;5041887;28;20193;-67
2022/09/09 07:12:54;;;;;;;19.23;5.85;;;16.50;99.90;;;;;;5070200;28;20188;-67
2022/09/09 07:15:23;;;;;;;13.80;5.32;;;16.50;99.90;;;;;;5051534;28;20183;-67
2022/09/09 07:17:49;;;;;;;13.52;5.22;;;16.60;99.90;;;;;;5054971;28;20628;-72
2022/09/09 07:20:15;;;;;;;11.55;5.28;;;16.60;99.90;;;;;;5037611;28;20229;-72
2022/09/09 07:22:41;;;;;;;16.23;6.03;;;16.60;99.90;;;;;;5050813;28;20199;-67
2022/09/09 07:25:08;;;;;;;15.15;5.72;;;16.60;99.90;;;;;;5054322;28;20186;-67
2022/09/09 07:27:35;;;;;;;12.25;6.03;;;16.60;99.90;;;;;;5055332;28;20229;-67
2022/09/09 07:30:02;;;;;;;15.40;6.40;;;16.70;99.90;;;;;;5053878;28;20187;-67
2022/09/09 07:32:30;;;;;;;17.48;6.45;;;16.70;99.90;;;;;;5056746;28;20186;-67
2022/09/09 07:34:58;;;;;;;14.60;6.25;;;16.80;99.90;;;;;;5038455;28;20236;-67
2022/09/09 07:37:24;;;;;;;17.23;5.53;;;16.80;99.90;;;;;;5053717;28;20211;-67
2022/09/09 07:39:51;;;;;;;15.65;6.15;;;16.80;99.90;;;;;;5053659;28;20211;-67
2022/09/09 07:42:17;;;;;;;19.33;6.28;;;16.90;99.90;;;;;;5025032;28;20195;-68
2022/09/09 07:44:43;;;;;;;17.63;6.45;;;16.90;99.90;;;;;;5054378;28;20175;-69
2022/09/09 07:47:14;;;;;;;21.20;7.13;;;16.90;99.90;;;;;;5052320;28;20264;-67
2022/09/09 07:49:46;;;;;;;17.42;6.32;;;16.90;99.90;;;;;;5063475;28;20193;-67
2022/09/09 07:52:14;;;;;;;16.90;6.03;;;17.00;99.90;;;;;;5044720;28;20198;-68
2022/09/09 07:54:42;;;;;;;14.48;6.15;;;17.00;99.90;;;;;;5069953;28;20183;-70
2022/09/09 07:57:09;;;;;;;16.40;6.50;;;17.00;99.90;;;;;;5055084;28;20183;-67
2022/09/09 07:59:36;;;;;;;17.00;6.20;;;17.00;99.90;;;;;;5055381;28;20218;-67
2022/09/09 08:02:03;;;;;;;14.00;6.28;;;17.10;99.90;;;;;;5054377;28;20227;-67
2022/09/09 08:04:31;;;;;;;24.58;7.32;;;17.10;99.90;;;;;;5035352;28;20544;-68
2022/09/09 08:07:00;;;;;;;16.50;6.47;;;17.10;99.90;;;;;;5050077;28;20263;-67
2022/09/09 08:09:28;;;;;;;18.08;6.38;;;17.20;99.90;;;;;;5054093;28;20545;-67
2022/09/09 08:12:00;;;;;;;15.02;6.30;;;17.20;99.90;;;;;;5069228;28;20186;-65
2022/09/09 08:14:28;;;;;;;17.95;6.57;;;17.20;99.90;;;;;;5046784;28;20415;-68
2022/09/09 08:16:56;;;;;;;20.50;6.32;;;17.20;99.90;;;;;;5051167;28;20179;-66
2022/09/09 08:19:23;;;;;;;16.33;6.07;;;17.30;99.90;;;;;;5054281;28;20179;-65
2022/09/09 08:21:49;;;;;;;15.90;6.43;;;17.40;99.90;;;;;;5043578;28;20179;-66
2022/09/09 08:24:16;;;;;;;15.35;6.20;;;17.40;99.90;;;;;;5053895;28;20201;-66
2022/09/09 08:26:49;;;;;;;13.20;6.05;;;17.40;99.90;;;;;;5039990;28;20198;-66
2022/09/09 08:29:17;;;;;;;18.92;6.72;;;17.40;99.90;;;;;;5051974;28;20225;-65
2022/09/09 08:31:50;;;;;;;20.13;7.03;;;17.40;99.90;;;;;;5053484;28;20172;-66
2022/09/09 08:34:19;;;;;;;15.95;7.20;;;17.40;99.90;;;;;;5053570;28;20183;-66
2022/09/09 08:36:48;;;;;;;11.07;6.22;;;17.40;99.90;;;;;;5052754;28;20249;-66
2022/09/09 08:39:16;;;;;;;16.70;6.78;;;17.40;99.90;;;;;;5033336;28;20573;-71
2022/09/09 08:41:58;;;;;;;17.83;7.68;;;17.40;99.90;;;;;;5039020;28;20175;-66
2022/09/09 08:44:58;;;;;;;16.65;6.85;;;17.50;99.90;;;;;;5051022;28;20194;-66
2022/09/09 08:47:40;;;;;;;18.58;7.05;;;17.50;99.90;;;;;;5050386;28;20168;-67
2022/09/09 08:50:21;;;;;;;18.58;6.28;;;17.60;99.90;;;;;;5039468;28;20270;-69
2022/09/09 08:52:53;;;;;;;18.90;6.43;;;17.70;99.90;;;;;;5039188;28;20233;-67
2022/09/09 08:55:27;;;;;;;13.95;6.00;;;17.80;99.90;;;;;;5053402;28;20531;-68
2022/09/09 08:57:57;;;;;;;10.63;5.90;;;17.80;99.90;;;;;;5053561;28;20175;-67
2022/09/09 09:00:38;;;;;;;12.75;5.60;;;17.90;99.90;;;;;;5036561;28;20888;-69
2022/09/09 09:03:32;;;;;;;11.77;5.50;;;17.90;99.90;;;;;;5032050;28;20213;-67
2022/09/09 09:06:22;;;;;;;20.27;6.03;;;18.00;99.90;;;;;;5057164;28;20186;-67
2022/09/09 09:09:14;;;;;;;16.58;6.90;;;18.00;99.90;;;;;;5050444;28;20613;-68
2022/09/09 09:11:51;;;;;;;13.82;6.25;;;18.00;99.90;;;;;;5060801;28;20217;-68
2022/09/09 09:14:23;;;;;;;16.17;6.43;;;18.00;99.90;;;;;;5043601;28;20548;-68
2022/09/09 09:16:58;;;;;;;11.85;6.03;;;18.00;99.90;;;;;;5049824;28;20549;-68
2022/09/09 09:19:28;;;;;;;16.85;6.00;;;17.90;99.90;;;;;;5070747;28;20261;-67
2022/09/09 09:22:32;;;;;;;16.48;5.97;;;17.90;99.90;;;;;;5051011;28;20188;-68
2022/09/09 09:25:06;;;;;;;13.75;5.93;;;17.90;99.90;;;;;;5052754;28;21065;-68
2022/09/09 09:27:33;;;;;;;12.02;5.95;;;17.90;99.90;;;;;;5050058;28;20198;-68
2022/09/09 09:30:05;;;;;;;18.83;6.10;;;17.80;99.90;;;;;;5052578;28;20549;-67
2022/09/09 09:32:34;;;;;;;15.27;6.07;;;17.80;99.90;;;;;;5068591;28;20224;-68
2022/09/09 09:35:04;;;;;;;13.48;5.53;;;17.80;99.90;;;;;;5052052;28;20666;-68
2022/09/09 09:37:34;;;;;;;15.23;6.07;;;17.80;99.90;;;;;;5050475;28;20198;-70
2022/09/09 09:40:20;;;;;;;19.80;6.07;;;17.80;99.90;;;;;;5038061;28;20507;-67
2022/09/09 09:43:00;;;;;;;13.85;5.85;;;17.80;99.90;;;;;;5034007;28;20214;-67
2022/09/09 09:45:41;;;;;;;15.35;6.03;;;17.90;99.90;;;;;;5052554;28;20175;-66
2022/09/09 09:48:12;;;;;;;19.98;5.53;;;18.00;99.90;;;;;;5055540;28;20183;-66
2022/09/09 09:50:55;;;;;;;19.13;5.35;;;18.00;99.90;;;;;;5034549;28;20191;-66
2022/09/09 09:53:29;;;;;;;14.13;5.30;;;18.00;99.90;;;;;;5054284;28;20202;-66
2022/09/09 09:56:06;;;;;;;13.02;6.05;;;18.00;99.90;;;;;;5052025;28;20179;-64
2022/09/09 09:58:45;;;;;;;20.77;7.22;;;17.90;99.90;;;;;;5037644;28;20789;-69
2022/09/09 10:01:39;;;;;;;18.80;8.23;;;17.90;99.90;;;;;;5058370;28;20325;-66
2022/09/09 10:04:19;;;;;;;17.20;7.40;;;17.90;99.90;;;;;;5033869;28;20647;-66
2022/09/09 10:06:46;;;;;;;16.02;7.13;;;18.00;99.90;;;;;;5050479;28;20221;-67
2022/09/09 10:09:32;;;;;;;17.48;7.47;;;18.10;99.90;;;;;;5039869;28;20186;-67
2022/09/09 10:12:18;;;;;;;14.30;6.80;;;18.10;99.90;;;;;;5064128;28;20186;-67
2022/09/09 10:15:27;;;;;;;17.42;7.45;;;18.20;99.90;;;;;;5052668;28;20166;-68
2022/09/09 10:17:55;;;;;;;14.82;6.75;;;18.30;99.90;;;;;;5036050;28;20172;-68
2022/09/09 10:21:00;;;;;;;15.70;6.22;;;18.40;99.90;;;;;;5042499;28;20734;-66
2022/09/09 10:23:57;;;;;;;16.27;6.10;;;18.40;99.90;;;;;;5052242;28;20186;-66
2022/09/09 10:26:44;;;;;;;12.15;5.72;;;18.50;99.90;;;;;;5052055;28;20560;-71
2022/09/09 10:29:37;;;;;;;15.55;5.82;;;18.50;99.90;;;;;;5042090;28;20203;-67
2022/09/09 10:32:22;;;;;;;15.77;5.57;;;18.50;99.90;;;;;;5048466;28;20270;-68
2022/09/09 10:35:02;;;;;;;18.33;5.13;;;18.50;99.90;;;;;;5044832;28;20241;-66
2022/09/09 10:37:37;;;;;;;13.75;4.78;;;18.60;99.90;;;;;;5033078;28;20168;-66
2022/09/09 10:40:32;;;;;;;16.20;5.40;;;18.70;99.90;;;;;;5036314;28;21155;-66
2022/09/09 10:43:19;;;;;;;12.65;5.05;;;18.80;99.90;;;;;;5053602;28;20183;-65
2022/09/09 10:46:12;;;;;;;11.68;4.78;;;18.90;99.90;;;;;;5042149;28;20182;-72
2022/09/09 10:49:04;;;;;;;14.10;4.43;;;18.90;99.90;;;;;;5031950;28;20164;-66
2022/09/09 10:51:54;;;;;;;16.58;4.07;;;19.00;99.90;;;;;;5047775;28;20241;-66
2022/09/09 10:54:46;;;;;;;9.50;3.92;;;18.90;99.90;;;;;;5051654;28;20233;-71
2022/09/09 10:57:28;;;;;;;9.27;3.88;;;19.00;99.90;;;;;;5039907;28;20183;-66
2022/09/09 10:59:59;;;;;;;12.80;4.30;;;19.00;99.90;;;;;;5067684;28;20561;-67
2022/09/09 11:02:29;;;;;;;15.95;4.50;;;19.10;99.90;;;;;;5051170;28;20233;-67
2022/09/09 11:05:10;;;;;;;15.43;3.90;;;19.10;99.90;;;;;;5051396;28;20523;-67
2022/09/09 11:07:48;;;;;;;9.05;3.83;;;19.10;99.90;;;;;;5041004;28;20171;-69
2022/09/09 11:10:24;;;;;;;13.30;4.32;;;19.10;99.90;;;;;;5055777;28;20345;-67
2022/09/09 11:12:53;;;;;;;16.73;4.75;;;19.00;99.90;;;;;;5058335;28;20229;-67
2022/09/09 11:15:25;;;;;;;19.33;5.10;;;18.90;99.90;;;;;;5051364;28;20658;-66
2022/09/09 11:17:56;;;;;;;15.23;4.47;;;18.90;99.90;;;;;;5047905;28;20892;-65
2022/09/09 11:20:25;;;;;;;14.45;5.72;;;18.80;99.90;;;;;;5047559;28;20219;-66
2022/09/09 11:23:14;;;;;;;10.70;5.25;;;18.70;99.90;;;;;;5040928;28;20187;-66
2022/09/09 11:25:44;;;;;;;15.15;5.40;;;18.50;99.90;;;;;;5052274;28;20674;-67
2022/09/09 11:28:41;;;;;;;20.70;5.80;;;18.40;99.90;;;;;;5052163;28;20194;-66
2022/09/09 11:31:45;;;;;;;11.00;5.65;;;18.30;99.90;;;;;;5049355;28;20233;-68
2022/09/09 11:34:31;;;;;;;12.38;5.70;;;18.30;99.90;;;;;;5050229;28;20619;-68
2022/09/09 11:37:17;;;;;;;11.88;5.15;;;18.40;99.90;;;;;;5051533;28;20215;-67
2022/09/09 11:39:48;;;;;;;13.13;4.93;;;18.40;99.90;;;;;;5051398;28;20217;-69
2022/09/09 11:42:14;;;;;;;14.13;4.53;;;18.40;99.90;;;;;;5057917;28;20187;-68
2022/09/09 11:44:41;;;;;;;13.32;4.57;;;18.60;99.90;;;;;;5039800;28;20175;-72
2022/09/09 11:47:31;;;;;;;10.57;4.40;;;18.70;99.90;;;;;;5051545;28;20229;-74
2022/09/09 11:50:15;;;;;;;8.18;3.85;;;18.70;99.90;;;;;;5051417;28;20217;-68
2022/09/09 11:52:43;;;;;;;7.38;3.75;;;18.80;99.90;;;;;;5042856;28;20632;-68
2022/09/09 11:55:36;;;;;;;13.27;3.92;;;18.80;99.90;;;;;;5046855;28;20174;-68
2022/09/09 11:58:04;;;;;;;7.80;3.80;;;18.90;99.90;;;;;;5049158;28;20219;-67
2022/09/09 12:00:41;;;;;;;6.75;3.40;;;19.00;99.90;;;;;;5055484;28;20211;-67
2022/09/09 12:03:30;;;;;;;5.68;3.13;;;19.20;99.90;;;;;;5046052;28;20178;-67
2022/09/09 12:05:56;;;;;;;8.63;3.70;;;19.40;99.90;;;;;;5047841;28;20211;-67
2022/09/09 12:08:28;;;;;;;9.05;3.65;;;19.50;99.90;;;;;;5070843;28;20172;-69
2022/09/09 12:10:59;;;;;;;6.93;3.45;;;19.60;99.90;;;;;;5061804;28;20194;-67
2022/09/09 12:13:26;;;;;;;6.85;3.35;;;19.60;99.90;;;;;;5057621;28;20195;-73
2022/09/09 12:15:55;;;;;;;6.15;3.33;;;19.70;99.90;;;;;;5041665;28;20650;-67
2022/09/09 12:18:39;;;;;;;7.68;3.10;;;19.70;99.90;;;;;;5054324;28;20171;-67
2022/09/09 12:21:21;;;;;;;7.50;3.30;;;19.80;99.90;;;;;;5054903;28;20638;-67
2022/09/09 12:23:55;;;;;;;8.02;3.15;;;19.90;99.90;;;;;;5049137;28;20197;-69
2022/09/09 12:26:32;;;;;;;10.00;3.28;;;20.10;99.90;;;;;;5049573;28;20209;-67
2022/09/09 12:29:20;;;;;;;11.75;3.50;;;20.20;99.90;;;;;;5054395;28;20525;-68
2022/09/09 12:32:08;;;;;;;10.82;4.60;;;20.20;99.90;;;;;;5054965;28;20186;-69
2022/09/09 12:34:37;;;;;;;8.75;4.18;;;20.20;99.90;;;;;;5051360;28;20283;-68
2022/09/09 12:37:25;;;;;;;10.02;4.47;;;20.00;99.90;;;;;;5055493;28;20179;-68
2022/09/09 12:40:03;;;;;;;9.52;4.15;;;19.90;99.90;;;;;;5054623;28;20202;-67
2022/09/09 12:42:30;;;;;;;11.40;4.55;;;19.60;99.90;;;;;;5035298;28;20175;-67
2022/09/09 12:45:16;;;;;;;11.30;5.90;;;19.50;99.90;;;;;;5015545;28;20217;-67
2022/09/09 12:48:03;;;;;;;10.20;5.07;;;19.40;99.90;;;;;;5032729;28;20188;-68
2022/09/09 12:50:35;;;;;;;15.98;5.72;;;19.20;99.90;;;;;;5041590;28;20187;-72
2022/09/09 12:53:08;;;;;;;12.95;5.78;;;19.10;99.90;;;;;;5052485;28;20639;-71
2022/09/09 12:55:37;;;;;;;10.98;6.05;;;19.10;99.90;;;;;;5037635;28;20187;-70
2022/09/09 12:58:05;;;;;;;12.15;5.32;;;19.10;99.90;;;;;;5055871;28;20199;-70
2022/09/09 13:00:33;;;;;;;12.43;5.55;;;19.20;99.90;;;;;;5053770;28;20215;-68
2022/09/09 13:03:02;;;;;;;13.27;5.35;;;19.30;99.90;;;;;;5053650;28;20175;-70
2022/09/09 13:05:35;;;;;;;6.93;4.35;;;19.30;99.90;;;;;;5050209;28;20233;-69
2022/09/09 13:08:05;;;;;;;10.27;4.28;;;19.40;99.90;;;;;;5054235;28;20186;-69
2022/09/09 13:10:38;;;;;;;13.73;4.72;;;19.40;99.90;;;;;;5055850;28;20190;-69